Jacksonville, FL (32226)

4:28 PM EDT on June 02, 2015 (GMT -0400)
Radio Control Club of Jax | | Change Station
CLOSE
Current Station
Personal Weather Station
Location: Jacksonville, FL
Elevation: 15 ft
Nearby Weather Stations

Elev 15 ft 30.44 °N, 81.55 °W | Updated 2 seconds ago

Mostly Cloudy
Mostly Cloudy
82.9 °F
Feels Like 88 °F
N
4.9
Wind Variable Wind from SSE
Gusts 8.0 mph

Today
High -- | Low -- °F
--% Chance of Precip.
Yesterday
High -- | Low -- °F
Precip. -- in
6:24 AM 8:24 PM
Full, 100% visible
Pressure 29.95 in
Visibility 10.0 miles
Clouds Few 3200 ft
Scattered Clouds 9000 ft
Mostly Cloudy 12000 ft
Overcast 20000 ft
Heat Index 88 °F
Dew Point 72 °F
Humidity 69%
Rainfall 0.00 in
Snow Depth Not available.
UV 3 out of 12
Pollen .60 out of 12
Air Quality Not available.
Flu Activity Sporadic
SPECI KJAX 022012Z 09005KT 10SM FEW032TCU SCT090 BKN120 OVC200 27/22 A2995 RMK AO2 TSE11 TCU OHD T02670217

More Conditions Fewer Conditions

Pressure 29.95 in
Visibility 10.0 miles
Clouds Few 3200 ft
Scattered Clouds 9000 ft
Mostly Cloudy 12000 ft
Overcast 20000 ft
Heat Index 88 °F
Dew Point 72 °F
Humidity 69%
Rainfall 0.00 in
Snow Depth Not available.
UV 3 out of 12
Pollen .60 out of 12
Air Quality Not available.
Flu Activity Sporadic
SPECI KJAX 022012Z 09005KT 10SM FEW032TCU SCT090 BKN120 OVC200 27/22 A2995 RMK AO2 TSE11 TCU OHD T02670217

More Conditions Fewer Conditions

10-Day Weather Forecast

×

Almanac

Astronomy

Jun. 02, 2015 Rise Set
Actual Time
Civil Twilight
Nautical Twilight
Astronomical Twilight
Moon
Length of Visible Light
Length of Day
Tomorrow will be .
, % of the Moon is Illuminated

Today's Extremes

State Highs State Lows

Community

WunderPhotos

Upload Photos

1,826,025 photos uploaded!

WunderBlogs® & News

Nearby

Air Quality

  Air Quality AQ Index Pollutant
Not available.

Snow Depth

Station Depth Elevation

Earthquake Activity

City Distance Mag. Time & Date
Minimum magnitude displayed is 2.5.

Coastal Water Temperatures

Place Temperature

Stations

Nearby Weather Stations

Station Location Temp. Windchill Dew Point Humidity Wind Precip. Elev Updated Type